sensor_id;sensor_type;location;lat;lon;timestamp;temperature;humidity
4596;DHT22;2310;49.978;8.742;2023-05-14T00:03:51;14.00;99.90
4596;DHT22;2310;49.978;8.742;2023-05-14T00:07:52;14.00;99.90
4596;DHT22;2310;49.978;8.742;2023-05-14T00:11:54;14.10;99.90
4596;DHT22;2310;49.978;8.742;2023-05-14T00:15:55;14.10;99.90
4596;DHT22;2310;49.978;8.742;2023-05-14T00:19:56;14.00;99.90
4596;DHT22;2310;49.978;8.742;2023-05-14T00:23:59;14.00;99.90
4596;DHT22;2310;49.978;8.742;2023-05-14T00:28:00;13.90;99.90
4596;DHT22;2310;49.978;8.742;2023-05-14T00:32:02;13.90;99.90
4596;DHT22;2310;49.978;8.742;2023-05-14T00:36:03;13.80;99.90
4596;DHT22;2310;49.978;8.742;2023-05-14T00:40:06;13.90;99.90
4596;DHT22;2310;49.978;8.742;2023-05-14T00:44:08;13.90;99.90
4596;DHT22;2310;49.978;8.742;2023-05-14T00:48:09;13.90;99.90
4596;DHT22;2310;49.978;8.742;2023-05-14T00:52:10;13.90;99.90
4596;DHT22;2310;49.978;8.742;2023-05-14T00:56:12;13.90;99.90
4596;DHT22;2310;49.978;8.742;2023-05-14T01:00:14;13.80;99.90
4596;DHT22;2310;49.978;8.742;2023-05-14T01:04:16;13.80;99.90
4596;DHT22;2310;49.978;8.742;2023-05-14T01:16:55;13.70;99.90
4596;DHT22;2310;49.978;8.742;2023-05-14T01:20:57;13.70;99.90
4596;DHT22;2310;49.978;8.742;2023-05-14T01:24:58;13.60;99.90
4596;DHT22;2310;49.978;8.742;2023-05-14T01:29:12;13.60;99.90
4596;DHT22;2310;49.978;8.742;2023-05-14T01:33:15;13.50;99.90
4596;DHT22;2310;49.978;8.742;2023-05-14T01:37:18;13.50;99.90
4596;DHT22;2310;49.978;8.742;2023-05-14T01:41:19;13.50;99.90
4596;DHT22;2310;49.978;8.742;2023-05-14T01:45:22;13.50;99.90
4596;DHT22;2310;49.978;8.742;2023-05-14T01:49:23;13.30;99.90
4596;DHT22;2310;49.978;8.742;2023-05-14T01:53:25;13.30;99.90
4596;DHT22;2310;49.978;8.742;2023-05-14T01:57:26;13.30;99.90
4596;DHT22;2310;49.978;8.742;2023-05-14T02:01:27;13.30;99.90
4596;DHT22;2310;49.978;8.742;2023-05-14T02:05:28;13.30;99.90
4596;DHT22;2310;49.978;8.742;2023-05-14T02:09:29;13.20;99.90
4596;DHT22;2310;49.978;8.742;2023-05-14T02:13:30;13.30;99.90
4596;DHT22;2310;49.978;8.742;2023-05-14T02:17:32;13.30;99.90
4596;DHT22;2310;49.978;8.742;2023-05-14T02:21:33;13.20;99.90
4596;DHT22;2310;49.978;8.742;2023-05-14T02:25:34;13.20;99.90
4596;DHT22;2310;49.978;8.742;2023-05-14T02:29:36;13.00;99.90
4596;DHT22;2310;49.978;8.742;2023-05-14T02:33:37;13.00;99.90
4596;DHT22;2310;49.978;8.742;2023-05-14T02:37:38;13.00;99.90
4596;DHT22;2310;49.978;8.742;2023-05-14T02:41:39;13.00;99.90
4596;DHT22;2310;49.978;8.742;2023-05-14T02:45:40;12.80;99.90
4596;DHT22;2310;49.978;8.742;2023-05-14T02:49:41;12.80;99.90
4596;DHT22;2310;49.978;8.742;2023-05-14T02:53:42;12.80;99.90
4596;DHT22;2310;49.978;8.742;2023-05-14T02:57:44;12.80;99.90
4596;DHT22;2310;49.978;8.742;2023-05-14T03:01:45;12.70;99.90
4596;DHT22;2310;49.978;8.742;2023-05-14T03:05:46;12.70;99.90
4596;DHT22;2310;49.978;8.742;2023-05-14T03:09:47;12.60;99.90
4596;DHT22;2310;49.978;8.742;2023-05-14T03:13:49;12.70;99.90
4596;DHT22;2310;49.978;8.742;2023-05-14T03:17:50;12.70;99.90
4596;DHT22;2310;49.978;8.742;2023-05-14T03:21:51;12.60;99.90
4596;DHT22;2310;49.978;8.742;2023-05-14T03:25:52;12.60;99.90
4596;DHT22;2310;49.978;8.742;2023-05-14T03:29:53;12.70;99.90
4596;DHT22;2310;49.978;8.742;2023-05-14T03:33:55;12.60;99.90
4596;DHT22;2310;49.978;8.742;2023-05-14T03:37:56;12.60;99.90
4596;DHT22;2310;49.978;8.742;2023-05-14T03:41:59;12.60;99.90
4596;DHT22;2310;49.978;8.742;2023-05-14T03:46:00;12.50;99.90
4596;DHT22;2310;49.978;8.742;2023-05-14T03:50:01;12.50;99.90
4596;DHT22;2310;49.978;8.742;2023-05-14T03:54:02;12.50;99.90
4596;DHT22;2310;49.978;8.742;2023-05-14T03:58:04;12.50;99.90
4596;DHT22;2310;49.978;8.742;2023-05-14T04:02:09;12.50;99.90
4596;DHT22;2310;49.978;8.742;2023-05-14T04:06:10;12.50;99.90
4596;DHT22;2310;49.978;8.742;2023-05-14T04:10:12;12.50;99.90
4596;DHT22;2310;49.978;8.742;2023-05-14T04:14:13;12.50;99.90
4596;DHT22;2310;49.978;8.742;2023-05-14T04:18:14;12.50;99.90
4596;DHT22;2310;49.978;8.742;2023-05-14T04:22:16;12.60;99.90
4596;DHT22;2310;49.978;8.742;2023-05-14T04:26:18;12.70;99.90
4596;DHT22;2310;49.978;8.742;2023-05-14T04:30:19;12.70;99.90
4596;DHT22;2310;49.978;8.742;2023-05-14T04:34:20;12.60;99.90
4596;DHT22;2310;49.978;8.742;2023-05-14T04:38:21;12.50;99.90
4596;DHT22;2310;49.978;8.742;2023-05-14T04:42:23;12.50;99.90
4596;DHT22;2310;49.978;8.742;2023-05-14T04:46:24;12.60;99.90
4596;DHT22;2310;49.978;8.742;2023-05-14T04:51:08;12.70;99.90
4596;DHT22;2310;49.978;8.742;2023-05-14T04:55:09;12.80;99.90
4596;DHT22;2310;49.978;8.742;2023-05-14T04:59:10;12.70;99.90
4596;DHT22;2310;49.978;8.742;2023-05-14T05:03:11;12.80;99.90
4596;DHT22;2310;49.978;8.742;2023-05-14T05:07:13;12.80;99.90
4596;DHT22;2310;49.978;8.742;2023-05-14T05:11:14;13.00;99.90
4596;DHT22;2310;49.978;8.742;2023-05-14T05:15:16;13.20;99.90
4596;DHT22;2310;49.978;8.742;2023-05-14T05:19:17;13.30;99.90
4596;DHT22;2310;49.978;8.742;2023-05-14T05:23:20;13.40;99.90
4596;DHT22;2310;49.978;8.742;2023-05-14T05:27:21;13.50;99.90
4596;DHT22;2310;49.978;8.742;2023-05-14T05:31:22;13.60;99.90
4596;DHT22;2310;49.978;8.742;2023-05-14T05:35:24;13.60;99.90
4596;DHT22;2310;49.978;8.742;2023-05-14T05:39:25;13.70;99.90
4596;DHT22;2310;49.978;8.742;2023-05-14T05:43:26;13.90;99.90
4596;DHT22;2310;49.978;8.742;2023-05-14T05:47:30;13.90;99.90
4596;DHT22;2310;49.978;8.742;2023-05-14T05:51:32;14.30;99.90
4596;DHT22;2310;49.978;8.742;2023-05-14T05:55:33;14.90;99.90
4596;DHT22;2310;49.978;8.742;2023-05-14T05:59:34;15.40;99.90
4596;DHT22;2310;49.978;8.742;2023-05-14T06:03:36;15.50;99.90
4596;DHT22;2310;49.978;8.742;2023-05-14T06:07:37;15.40;99.90
4596;DHT22;2310;49.978;8.742;2023-05-14T06:11:39;15.10;99.90
4596;DHT22;2310;49.978;8.742;2023-05-14T06:15:40;14.90;99.90
4596;DHT22;2310;49.978;8.742;2023-05-14T06:19:41;15.00;99.90
4596;DHT22;2310;49.978;8.742;2023-05-14T06:23:42;15.20;99.90
4596;DHT22;2310;49.978;8.742;2023-05-14T06:27:44;15.10;99.90
4596;DHT22;2310;49.978;8.742;2023-05-14T06:31:45;15.10;99.90
4596;DHT22;2310;49.978;8.742;2023-05-14T06:35:46;15.10;99.90
4596;DHT22;2310;49.978;8.742;2023-05-14T06:39:47;15.20;99.90
4596;DHT22;2310;49.978;8.742;2023-05-14T06:43:50;15.30;99.90
4596;DHT22;2310;49.978;8.742;2023-05-14T06:47:51;15.50;99.90
4596;DHT22;2310;49.978;8.742;2023-05-14T06:51:53;15.70;99.90
4596;DHT22;2310;49.978;8.742;2023-05-14T06:55:54;15.80;99.90
4596;DHT22;2310;49.978;8.742;2023-05-14T06:59:56;15.80;99.90
4596;DHT22;2310;49.978;8.742;2023-05-14T07:03:57;15.90;99.90
4596;DHT22;2310;49.978;8.742;2023-05-14T07:07:58;16.00;99.90
4596;DHT22;2310;49.978;8.742;2023-05-14T07:12:00;15.90;99.90
4596;DHT22;2310;49.978;8.742;2023-05-14T07:16:01;15.90;99.90
4596;DHT22;2310;49.978;8.742;2023-05-14T07:20:03;16.30;99.90
4596;DHT22;2310;49.978;8.742;2023-05-14T07:24:06;16.30;99.90
4596;DHT22;2310;49.978;8.742;2023-05-14T07:28:08;16.60;99.90
4596;DHT22;2310;49.978;8.742;2023-05-14T07:32:09;16.80;99.90
4596;DHT22;2310;49.978;8.742;2023-05-14T07:36:10;16.80;99.90
4596;DHT22;2310;49.978;8.742;2023-05-14T07:40:11;16.80;99.90
4596;DHT22;2310;49.978;8.742;2023-05-14T07:44:12;16.60;99.90
4596;DHT22;2310;49.978;8.742;2023-05-14T07:48:14;16.90;99.90
4596;DHT22;2310;49.978;8.742;2023-05-14T07:52:15;17.30;99.90
4596;DHT22;2310;49.978;8.742;2023-05-14T07:56:17;17.80;99.90
4596;DHT22;2310;49.978;8.742;2023-05-14T08:00:18;18.10;99.90
4596;DHT22;2310;49.978;8.742;2023-05-14T08:04:19;18.20;99.90
4596;DHT22;2310;49.978;8.742;2023-05-14T08:08:23;18.30;99.90
4596;DHT22;2310;49.978;8.742;2023-05-14T08:12:24;18.10;99.90
4596;DHT22;2310;49.978;8.742;2023-05-14T08:16:26;18.00;99.90
4596;DHT22;2310;49.978;8.742;2023-05-14T08:20:29;17.90;99.90
4596;DHT22;2310;49.978;8.742;2023-05-14T08:24:31;17.70;99.90
4596;DHT22;2310;49.978;8.742;2023-05-14T08:28:32;17.50;99.90
4596;DHT22;2310;49.978;8.742;2023-05-14T08:32:33;17.50;99.90
4596;DHT22;2310;49.978;8.742;2023-05-14T08:36:35;17.60;99.90
4596;DHT22;2310;49.978;8.742;2023-05-14T08:40:36;17.80;99.90
4596;DHT22;2310;49.978;8.742;2023-05-14T08:44:42;17.70;99.90
4596;DHT22;2310;49.978;8.742;2023-05-14T08:48:42;17.70;99.90
4596;DHT22;2310;49.978;8.742;2023-05-14T08:52:45;17.90;99.90
4596;DHT22;2310;49.978;8.742;2023-05-14T08:56:47;18.10;99.90
4596;DHT22;2310;49.978;8.742;2023-05-14T09:00:50;18.20;99.90
4596;DHT22;2310;49.978;8.742;2023-05-14T09:04:54;18.60;99.90
4596;DHT22;2310;49.978;8.742;2023-05-14T09:08:56;18.80;99.90
4596;DHT22;2310;49.978;8.742;2023-05-14T09:12:57;18.70;99.90
4596;DHT22;2310;49.978;8.742;2023-05-14T09:16:58;18.70;99.90
4596;DHT22;2310;49.978;8.742;2023-05-14T09:21:00;18.90;99.90
4596;DHT22;2310;49.978;8.742;2023-05-14T09:25:06;19.50;99.90
4596;DHT22;2310;49.978;8.742;2023-05-14T09:29:09;19.90;99.90
4596;DHT22;2310;49.978;8.742;2023-05-14T09:33:10;19.70;99.90
4596;DHT22;2310;49.978;8.742;2023-05-14T09:37:12;20.00;99.90
4596;DHT22;2310;49.978;8.742;2023-05-14T09:41:13;20.50;99.90
4596;DHT22;2310;49.978;8.742;2023-05-14T09:45:15;20.40;99.90
4596;DHT22;2310;49.978;8.742;2023-05-14T09:49:17;20.10;99.90
4596;DHT22;2310;49.978;8.742;2023-05-14T09:53:18;20.00;99.90
4596;DHT22;2310;49.978;8.742;2023-05-14T09:57:20;19.70;99.90
4596;DHT22;2310;49.978;8.742;2023-05-14T10:01:21;19.30;99.90
4596;DHT22;2310;49.978;8.742;2023-05-14T10:05:22;19.80;99.90
4596;DHT22;2310;49.978;8.742;2023-05-14T10:09:26;19.80;99.90
4596;DHT22;2310;49.978;8.742;2023-05-14T10:13:36;19.80;99.90
4596;DHT22;2310;49.978;8.742;2023-05-14T10:17:40;19.70;99.90
4596;DHT22;2310;49.978;8.742;2023-05-14T10:21:47;19.70;99.90
4596;DHT22;2310;49.978;8.742;2023-05-14T10:25:49;19.60;99.90
4596;DHT22;2310;49.978;8.742;2023-05-14T10:29:54;19.50;99.90
4596;DHT22;2310;49.978;8.742;2023-05-14T10:33:56;19.40;99.90
4596;DHT22;2310;49.978;8.742;2023-05-14T10:37:59;19.50;99.90
4596;DHT22;2310;49.978;8.742;2023-05-14T10:42:00;19.70;99.90
4596;DHT22;2310;49.978;8.742;2023-05-14T10:46:01;19.90;99.90
4596;DHT22;2310;49.978;8.742;2023-05-14T10:50:05;19.60;99.90
4596;DHT22;2310;49.978;8.742;2023-05-14T10:54:07;19.50;99.90
4596;DHT22;2310;49.978;8.742;2023-05-14T10:58:09;19.30;99.90
4596;DHT22;2310;49.978;8.742;2023-05-14T11:02:19;19.50;99.90
4596;DHT22;2310;49.978;8.742;2023-05-14T11:06:21;19.70;99.90
4596;DHT22;2310;49.978;8.742;2023-05-14T11:10:23;19.80;99.40
4596;DHT22;2310;49.978;8.742;2023-05-14T11:14:26;19.70;99.90
4596;DHT22;2310;49.978;8.742;2023-05-14T11:18:29;19.70;99.50
4596;DHT22;2310;49.978;8.742;2023-05-14T11:22:31;19.80;98.40
4596;DHT22;2310;49.978;8.742;2023-05-14T11:26:32;20.00;99.80
4596;DHT22;2310;49.978;8.742;2023-05-14T11:30:34;20.00;98.60
4596;DHT22;2310;49.978;8.742;2023-05-14T11:34:35;20.00;99.90
4596;DHT22;2310;49.978;8.742;2023-05-14T11:38:47;20.30;98.50
4596;DHT22;2310;49.978;8.742;2023-05-14T11:42:52;20.00;98.20
4596;DHT22;2310;49.978;8.742;2023-05-14T11:46:55;20.10;99.20
4596;DHT22;2310;49.978;8.742;2023-05-14T11:50:57;20.30;99.90
4596;DHT22;2310;49.978;8.742;2023-05-14T11:54:58;20.30;99.60
4596;DHT22;2310;49.978;8.742;2023-05-14T11:58:59;20.30;98.90
4596;DHT22;2310;49.978;8.742;2023-05-14T12:03:00;20.10;99.90
4596;DHT22;2310;49.978;8.742;2023-05-14T12:07:08;20.40;99.90
4596;DHT22;2310;49.978;8.742;2023-05-14T12:11:09;20.30;99.90
4596;DHT22;2310;49.978;8.742;2023-05-14T12:15:11;20.10;99.90
4596;DHT22;2310;49.978;8.742;2023-05-14T12:19:17;20.50;99.90
4596;DHT22;2310;49.978;8.742;2023-05-14T12:23:26;20.40;98.60
4596;DHT22;2310;49.978;8.742;2023-05-14T12:27:28;20.70;96.30
4596;DHT22;2310;49.978;8.742;2023-05-14T12:31:30;20.80;96.80
4596;DHT22;2310;49.978;8.742;2023-05-14T12:35:32;21.00;96.20
4596;DHT22;2310;49.978;8.742;2023-05-14T12:39:33;21.60;94.00
4596;DHT22;2310;49.978;8.742;2023-05-14T12:43:34;21.90;92.50
4596;DHT22;2310;49.978;8.742;2023-05-14T12:47:36;22.00;84.90
4596;DHT22;2310;49.978;8.742;2023-05-14T12:51:38;22.50;80.90
4596;DHT22;2310;49.978;8.742;2023-05-14T12:55:39;22.50;82.40
4596;DHT22;2310;49.978;8.742;2023-05-14T12:59:40;22.80;85.70
4596;DHT22;2310;49.978;8.742;2023-05-14T13:03:41;22.30;79.50
4596;DHT22;2310;49.978;8.742;2023-05-14T13:07:42;22.30;80.30
4596;DHT22;2310;49.978;8.742;2023-05-14T13:11:44;22.50;75.60
4596;DHT22;2310;49.978;8.742;2023-05-14T13:15:45;22.00;74.50
4596;DHT22;2310;49.978;8.742;2023-05-14T13:19:46;21.70;71.00
4596;DHT22;2310;49.978;8.742;2023-05-14T13:23:48;22.00;79.10
4596;DHT22;2310;49.978;8.742;2023-05-14T13:27:49;22.10;82.50
4596;DHT22;2310;49.978;8.742;2023-05-14T13:31:53;22.10;82.70
4596;DHT22;2310;49.978;8.742;2023-05-14T13:35:54;21.90;81.60
4596;DHT22;2310;49.978;8.742;2023-05-14T13:39:55;22.40;83.20
4596;DHT22;2310;49.978;8.742;2023-05-14T13:43:57;23.00;85.90
4596;DHT22;2310;49.978;8.742;2023-05-14T13:47:58;23.20;85.40
4596;DHT22;2310;49.978;8.742;2023-05-14T13:52:01;23.40;82.00
4596;DHT22;2310;49.978;8.742;2023-05-14T13:56:02;23.30;75.20
4596;DHT22;2310;49.978;8.742;2023-05-14T14:00:07;23.20;71.00
4596;DHT22;2310;49.978;8.742;2023-05-14T14:04:09;23.30;69.30
4596;DHT22;2310;49.978;8.742;2023-05-14T14:08:10;23.40;70.00
4596;DHT22;2310;49.978;8.742;2023-05-14T14:12:13;23.40;75.70
4596;DHT22;2310;49.978;8.742;2023-05-14T14:16:14;23.60;65.20
4596;DHT22;2310;49.978;8.742;2023-05-14T14:20:16;23.80;64.90
4596;DHT22;2310;49.978;8.742;2023-05-14T14:24:17;23.80;69.30
4596;DHT22;2310;49.978;8.742;2023-05-14T14:28:18;24.30;64.50
4596;DHT22;2310;49.978;8.742;2023-05-14T14:32:20;23.60;61.30
4596;DHT22;2310;49.978;8.742;2023-05-14T14:36:21;23.30;62.60
4596;DHT22;2310;49.978;8.742;2023-05-14T14:40:22;23.40;63.20
4596;DHT22;2310;49.978;8.742;2023-05-14T14:44:24;23.20;64.20
4596;DHT22;2310;49.978;8.742;2023-05-14T14:52:41;23.80;65.00
4596;DHT22;2310;49.978;8.742;2023-05-14T14:56:47;23.70;62.60
4596;DHT22;2310;49.978;8.742;2023-05-14T15:00:52;23.30;64.30
4596;DHT22;2310;49.978;8.742;2023-05-14T15:04:53;22.60;68.20
4596;DHT22;2310;49.978;8.742;2023-05-14T15:08:54;23.10;64.70
4596;DHT22;2310;49.978;8.742;2023-05-14T15:12:59;23.70;59.70
4596;DHT22;2310;49.978;8.742;2023-05-14T15:17:00;23.40;60.20
4596;DHT22;2310;49.978;8.742;2023-05-14T15:21:01;23.40;60.70
4596;DHT22;2310;49.978;8.742;2023-05-14T15:25:03;23.70;61.30
4596;DHT22;2310;49.978;8.742;2023-05-14T15:29:04;23.70;65.40
4596;DHT22;2310;49.978;8.742;2023-05-14T15:33:09;23.80;61.90
4596;DHT22;2310;49.978;8.742;2023-05-14T15:37:10;24.10;58.00
4596;DHT22;2310;49.978;8.742;2023-05-14T15:41:11;24.00;59.00
4596;DHT22;2310;49.978;8.742;2023-05-14T15:45:13;23.20;58.80
4596;DHT22;2310;49.978;8.742;2023-05-14T15:49:14;23.10;58.70
4596;DHT22;2310;49.978;8.742;2023-05-14T15:53:15;23.10;60.00
4596;DHT22;2310;49.978;8.742;2023-05-14T15:57:16;23.50;61.50
4596;DHT22;2310;49.978;8.742;2023-05-14T16:01:19;23.40;58.80
4596;DHT22;2310;49.978;8.742;2023-05-14T16:05:21;23.40;59.10
4596;DHT22;2310;49.978;8.742;2023-05-14T16:09:22;23.10;61.30
4596;DHT22;2310;49.978;8.742;2023-05-14T16:13:23;22.00;75.30
4596;DHT22;2310;49.978;8.742;2023-05-14T16:17:25;21.40;90.20
4596;DHT22;2310;49.978;8.742;2023-05-14T16:21:27;21.10;91.00
4596;DHT22;2310;49.978;8.742;2023-05-14T16:25:29;21.00;88.50
4596;DHT22;2310;49.978;8.742;2023-05-14T16:29:30;21.00;79.00
4596;DHT22;2310;49.978;8.742;2023-05-14T16:33:32;21.00;77.80
4596;DHT22;2310;49.978;8.742;2023-05-14T16:37:33;20.90;84.60
4596;DHT22;2310;49.978;8.742;2023-05-14T16:41:34;21.00;90.80
4596;DHT22;2310;49.978;8.742;2023-05-14T16:45:36;20.90;90.00
4596;DHT22;2310;49.978;8.742;2023-05-14T16:49:37;20.90;91.50
4596;DHT22;2310;49.978;8.742;2023-05-14T16:53:38;20.70;94.70
4596;DHT22;2310;49.978;8.742;2023-05-14T16:57:39;20.50;95.30
4596;DHT22;2310;49.978;8.742;2023-05-14T17:01:42;20.00;99.30
4596;DHT22;2310;49.978;8.742;2023-05-14T17:05:43;19.70;99.60
4596;DHT22;2310;49.978;8.742;2023-05-14T17:09:44;19.90;99.50
4596;DHT22;2310;49.978;8.742;2023-05-14T17:13:45;19.80;99.90
4596;DHT22;2310;49.978;8.742;2023-05-14T17:17:47;19.70;99.90
4596;DHT22;2310;49.978;8.742;2023-05-14T17:21:48;19.50;99.90
4596;DHT22;2310;49.978;8.742;2023-05-14T17:25:49;19.40;99.90
4596;DHT22;2310;49.978;8.742;2023-05-14T17:29:50;19.40;99.90
4596;DHT22;2310;49.978;8.742;2023-05-14T17:33:52;19.40;99.90
4596;DHT22;2310;49.978;8.742;2023-05-14T17:37:53;19.80;99.90
4596;DHT22;2310;49.978;8.742;2023-05-14T17:41:54;19.80;99.90
4596;DHT22;2310;49.978;8.742;2023-05-14T17:45:55;19.80;99.90
4596;DHT22;2310;49.978;8.742;2023-05-14T17:49:56;19.70;99.90
4596;DHT22;2310;49.978;8.742;2023-05-14T17:53:58;19.60;99.90
4596;DHT22;2310;49.978;8.742;2023-05-14T17:57:59;19.60;99.90
4596;DHT22;2310;49.978;8.742;2023-05-14T18:02:00;19.60;99.90
4596;DHT22;2310;49.978;8.742;2023-05-14T18:06:02;19.60;99.90
4596;DHT22;2310;49.978;8.742;2023-05-14T18:10:04;19.30;99.90
4596;DHT22;2310;49.978;8.742;2023-05-14T18:14:05;19.20;99.90
4596;DHT22;2310;49.978;8.742;2023-05-14T18:18:07;19.20;99.90
4596;DHT22;2310;49.978;8.742;2023-05-14T18:22:09;19.10;99.90
4596;DHT22;2310;49.978;8.742;2023-05-14T18:26:10;19.00;99.90
4596;DHT22;2310;49.978;8.742;2023-05-14T18:30:12;18.90;99.90
4596;DHT22;2310;49.978;8.742;2023-05-14T18:34:14;18.70;99.90
4596;DHT22;2310;49.978;8.742;2023-05-14T18:38:16;18.60;99.90
4596;DHT22;2310;49.978;8.742;2023-05-14T18:42:19;18.30;99.90
4596;DHT22;2310;49.978;8.742;2023-05-14T18:46:20;18.20;99.90
4596;DHT22;2310;49.978;8.742;2023-05-14T18:50:21;18.30;99.90
4596;DHT22;2310;49.978;8.742;2023-05-14T18:54:23;18.30;99.90
4596;DHT22;2310;49.978;8.742;2023-05-14T18:58:24;18.40;99.90
4596;DHT22;2310;49.978;8.742;2023-05-14T19:02:26;18.20;99.90
4596;DHT22;2310;49.978;8.742;2023-05-14T19:06:27;18.10;99.90
4596;DHT22;2310;49.978;8.742;2023-05-14T19:10:29;17.90;99.90
4596;DHT22;2310;49.978;8.742;2023-05-14T19:14:30;17.90;99.90
4596;DHT22;2310;49.978;8.742;2023-05-14T19:18:31;17.80;99.90
4596;DHT22;2310;49.978;8.742;2023-05-14T19:22:32;17.60;99.90
4596;DHT22;2310;49.978;8.742;2023-05-14T19:26:34;17.60;99.90
4596;DHT22;2310;49.978;8.742;2023-05-14T19:30:35;17.60;99.90
4596;DHT22;2310;49.978;8.742;2023-05-14T19:34:36;17.50;99.90
4596;DHT22;2310;49.978;8.742;2023-05-14T19:38:37;17.60;99.90
4596;DHT22;2310;49.978;8.742;2023-05-14T19:42:39;17.30;99.90
4596;DHT22;2310;49.978;8.742;2023-05-14T19:46:40;17.30;99.90
4596;DHT22;2310;49.978;8.742;2023-05-14T19:50:42;17.20;99.90
4596;DHT22;2310;49.978;8.742;2023-05-14T19:54:43;17.10;99.90
4596;DHT22;2310;49.978;8.742;2023-05-14T19:58:44;17.20;99.90
4596;DHT22;2310;49.978;8.742;2023-05-14T20:02:45;17.20;99.90
4596;DHT22;2310;49.978;8.742;2023-05-14T20:06:47;17.20;99.90
4596;DHT22;2310;49.978;8.742;2023-05-14T20:10:49;17.30;99.90
4596;DHT22;2310;49.978;8.742;2023-05-14T20:14:50;17.30;99.90
4596;DHT22;2310;49.978;8.742;2023-05-14T20:18:52;17.20;99.90
4596;DHT22;2310;49.978;8.742;2023-05-14T20:22:53;17.20;99.90
4596;DHT22;2310;49.978;8.742;2023-05-14T20:26:55;17.20;99.90
4596;DHT22;2310;49.978;8.742;2023-05-14T20:30:56;17.10;99.90
4596;DHT22;2310;49.978;8.742;2023-05-14T20:35:03;17.10;99.90
4596;DHT22;2310;49.978;8.742;2023-05-14T20:39:05;17.00;99.90
4596;DHT22;2310;49.978;8.742;2023-05-14T20:43:06;16.90;99.90
4596;DHT22;2310;49.978;8.742;2023-05-14T20:47:07;16.90;99.90
4596;DHT22;2310;49.978;8.742;2023-05-14T20:51:08;16.90;99.90
4596;DHT22;2310;49.978;8.742;2023-05-14T20:55:09;16.80;99.90
4596;DHT22;2310;49.978;8.742;2023-05-14T20:59:10;16.80;99.90
4596;DHT22;2310;49.978;8.742;2023-05-14T21:03:12;16.70;99.90
4596;DHT22;2310;49.978;8.742;2023-05-14T21:07:13;16.80;99.90
4596;DHT22;2310;49.978;8.742;2023-05-14T21:11:14;16.90;99.90
4596;DHT22;2310;49.978;8.742;2023-05-14T21:15:16;16.80;99.90
4596;DHT22;2310;49.978;8.742;2023-05-14T21:19:17;16.70;99.90
4596;DHT22;2310;49.978;8.742;2023-05-14T21:23:18;16.70;99.90
4596;DHT22;2310;49.978;8.742;2023-05-14T21:27:20;16.60;99.90
4596;DHT22;2310;49.978;8.742;2023-05-14T21:31:21;16.60;99.90
4596;DHT22;2310;49.978;8.742;2023-05-14T21:35:22;16.40;99.90
4596;DHT22;2310;49.978;8.742;2023-05-14T21:39:24;16.30;99.90
4596;DHT22;2310;49.978;8.742;2023-05-14T21:43:25;16.20;99.90
4596;DHT22;2310;49.978;8.742;2023-05-14T21:47:27;16.00;99.90
4596;DHT22;2310;49.978;8.742;2023-05-14T21:51:28;16.00;99.90
4596;DHT22;2310;49.978;8.742;2023-05-14T21:55:29;16.00;99.90
4596;DHT22;2310;49.978;8.742;2023-05-14T21:59:31;16.00;99.90
4596;DHT22;2310;49.978;8.742;2023-05-14T22:03:33;15.90;99.90
4596;DHT22;2310;49.978;8.742;2023-05-14T22:07:35;15.80;99.90
4596;DHT22;2310;49.978;8.742;2023-05-14T22:11:36;15.60;99.90
4596;DHT22;2310;49.978;8.742;2023-05-14T22:15:37;15.50;99.90
4596;DHT22;2310;49.978;8.742;2023-05-14T22:19:39;15.50;99.90
4596;DHT22;2310;49.978;8.742;2023-05-14T22:23:40;15.40;99.90
4596;DHT22;2310;49.978;8.742;2023-05-14T22:27:41;15.40;99.90
4596;DHT22;2310;49.978;8.742;2023-05-14T22:31:42;15.40;99.90
4596;DHT22;2310;49.978;8.742;2023-05-14T22:35:44;15.30;99.90
4596;DHT22;2310;49.978;8.742;2023-05-14T22:39:45;15.20;99.90
4596;DHT22;2310;49.978;8.742;2023-05-14T22:43:46;15.20;99.90
4596;DHT22;2310;49.978;8.742;2023-05-14T22:47:49;15.00;99.90
4596;DHT22;2310;49.978;8.742;2023-05-14T22:51:50;14.90;99.90
4596;DHT22;2310;49.978;8.742;2023-05-14T22:55:54;14.90;99.90
4596;DHT22;2310;49.978;8.742;2023-05-14T22:59:55;14.90;99.90
4596;DHT22;2310;49.978;8.742;2023-05-14T23:03:56;14.80;99.90
4596;DHT22;2310;49.978;8.742;2023-05-14T23:07:57;14.80;99.90
4596;DHT22;2310;49.978;8.742;2023-05-14T23:11:59;14.80;99.90
4596;DHT22;2310;49.978;8.742;2023-05-14T23:16:00;14.80;99.90
4596;DHT22;2310;49.978;8.742;2023-05-14T23:20:01;14.60;99.90
4596;DHT22;2310;49.978;8.742;2023-05-14T23:24:05;14.70;99.90
4596;DHT22;2310;49.978;8.742;2023-05-14T23:28:06;14.60;99.90
4596;DHT22;2310;49.978;8.742;2023-05-14T23:32:07;14.60;99.90
4596;DHT22;2310;49.978;8.742;2023-05-14T23:36:09;14.60;99.90
4596;DHT22;2310;49.978;8.742;2023-05-14T23:40:10;14.80;99.90
4596;DHT22;2310;49.978;8.742;2023-05-14T23:44:11;14.80;99.90
4596;DHT22;2310;49.978;8.742;2023-05-14T23:48:13;14.80;99.90
4596;DHT22;2310;49.978;8.742;2023-05-14T23:52:14;14.90;99.90
4596;DHT22;2310;49.978;8.742;2023-05-14T23:56:15;15.00;99.90
